sensor_id;sensor_type;location;lat;lon;timestamp;P1;durP1;ratioP1;P2;durP2;ratioP2
65753;SDS011;52488;47.502;18.940;2023-02-15T00:00:08;14.63;;;7.62;;
65753;SDS011;52488;47.502;18.940;2023-02-15T00:01:13;13.98;;;7.03;;
65753;SDS011;52488;47.502;18.940;2023-02-15T00:02:17;14.18;;;7.93;;
65753;SDS011;52488;47.502;18.940;2023-02-15T00:03:22;12.77;;;7.05;;
65753;SDS011;52488;47.502;18.940;2023-02-15T00:04:25;12.48;;;7.00;;
65753;SDS011;52488;47.502;18.940;2023-02-15T00:05:48;13.75;;;6.93;;
65753;SDS011;52488;47.502;18.940;2023-02-15T00:06:52;12.95;;;6.50;;
65753;SDS011;52488;47.502;18.940;2023-02-15T00:07:55;13.23;;;6.45;;
65753;SDS011;52488;47.502;18.940;2023-02-15T00:08:58;10.45;;;5.87;;
65753;SDS011;52488;47.502;18.940;2023-02-15T00:10:02;11.85;;;6.25;;
65753;SDS011;52488;47.502;18.940;2023-02-15T00:11:07;11.40;;;6.03;;
65753;SDS011;52488;47.502;18.940;2023-02-15T00:12:14;12.40;;;6.70;;
65753;SDS011;52488;47.502;18.940;2023-02-15T00:13:18;11.30;;;6.40;;
65753;SDS011;52488;47.502;18.940;2023-02-15T00:14:22;13.13;;;6.22;;
65753;SDS011;52488;47.502;18.940;2023-02-15T00:15:26;11.80;;;6.32;;
65753;SDS011;52488;47.502;18.940;2023-02-15T00:16:29;12.43;;;6.12;;
65753;SDS011;52488;47.502;18.940;2023-02-15T00:17:32;16.75;;;7.45;;
65753;SDS011;52488;47.502;18.940;2023-02-15T00:18:40;13.80;;;6.50;;
65753;SDS011;52488;47.502;18.940;2023-02-15T00:19:43;13.30;;;7.32;;
65753;SDS011;52488;47.502;18.940;2023-02-15T00:20:46;12.27;;;7.10;;
65753;SDS011;52488;47.502;18.940;2023-02-15T00:21:49;15.23;;;7.43;;
65753;SDS011;52488;47.502;18.940;2023-02-15T00:22:52;14.93;;;7.75;;
65753;SDS011;52488;47.502;18.940;2023-02-15T00:23:57;17.62;;;7.75;;
65753;SDS011;52488;47.502;18.940;2023-02-15T00:25:01;14.27;;;7.22;;
65753;SDS011;52488;47.502;18.940;2023-02-15T00:27:09;18.12;;;8.38;;
65753;SDS011;52488;47.502;18.940;2023-02-15T00:28:12;15.75;;;8.20;;
65753;SDS011;52488;47.502;18.940;2023-02-15T00:29:16;21.60;;;8.93;;
65753;SDS011;52488;47.502;18.940;2023-02-15T00:30:22;14.63;;;8.02;;
65753;SDS011;52488;47.502;18.940;2023-02-15T00:31:25;16.95;;;8.45;;
65753;SDS011;52488;47.502;18.940;2023-02-15T00:32:30;16.37;;;8.57;;
65753;SDS011;52488;47.502;18.940;2023-02-15T00:33:34;17.45;;;7.85;;
65753;SDS011;52488;47.502;18.940;2023-02-15T00:34:38;16.70;;;8.35;;
65753;SDS011;52488;47.502;18.940;2023-02-15T00:35:42;14.10;;;7.30;;
65753;SDS011;52488;47.502;18.940;2023-02-15T00:36:45;13.88;;;7.15;;
65753;SDS011;52488;47.502;18.940;2023-02-15T00:37:50;14.57;;;7.00;;
65753;SDS011;52488;47.502;18.940;2023-02-15T00:38:54;13.77;;;7.50;;
65753;SDS011;52488;47.502;18.940;2023-02-15T00:39:58;11.85;;;6.78;;
65753;SDS011;52488;47.502;18.940;2023-02-15T00:41:02;14.63;;;6.65;;
65753;SDS011;52488;47.502;18.940;2023-02-15T00:42:07;12.93;;;7.35;;
65753;SDS011;52488;47.502;18.940;2023-02-15T00:43:10;13.65;;;7.22;;
65753;SDS011;52488;47.502;18.940;2023-02-15T00:44:13;18.35;;;8.32;;
65753;SDS011;52488;47.502;18.940;2023-02-15T00:45:17;16.10;;;7.87;;
65753;SDS011;52488;47.502;18.940;2023-02-15T00:46:21;14.05;;;7.10;;
65753;SDS011;52488;47.502;18.940;2023-02-15T00:47:24;16.60;;;7.70;;
65753;SDS011;52488;47.502;18.940;2023-02-15T00:48:28;17.65;;;7.93;;
65753;SDS011;52488;47.502;18.940;2023-02-15T00:49:31;15.25;;;7.90;;
65753;SDS011;52488;47.502;18.940;2023-02-15T00:50:34;16.52;;;7.25;;
65753;SDS011;52488;47.502;18.940;2023-02-15T00:51:38;14.80;;;7.97;;
65753;SDS011;52488;47.502;18.940;2023-02-15T00:52:42;14.85;;;7.80;;
65753;SDS011;52488;47.502;18.940;2023-02-15T00:53:45;13.52;;;6.93;;
65753;SDS011;52488;47.502;18.940;2023-02-15T00:54:48;15.75;;;7.15;;
65753;SDS011;52488;47.502;18.940;2023-02-15T00:55:52;14.63;;;6.93;;
65753;SDS011;52488;47.502;18.940;2023-02-15T00:56:56;14.65;;;7.50;;
65753;SDS011;52488;47.502;18.940;2023-02-15T00:57:59;13.02;;;7.03;;
65753;SDS011;52488;47.502;18.940;2023-02-15T00:59:02;11.93;;;6.40;;
65753;SDS011;52488;47.502;18.940;2023-02-15T01:00:05;12.13;;;6.22;;
65753;SDS011;52488;47.502;18.940;2023-02-15T01:01:10;11.02;;;5.70;;
65753;SDS011;52488;47.502;18.940;2023-02-15T01:02:15;11.10;;;5.95;;
65753;SDS011;52488;47.502;18.940;2023-02-15T01:03:19;9.88;;;5.53;;
65753;SDS011;52488;47.502;18.940;2023-02-15T01:04:23;11.65;;;5.93;;
65753;SDS011;52488;47.502;18.940;2023-02-15T01:05:27;10.20;;;5.72;;
65753;SDS011;52488;47.502;18.940;2023-02-15T01:06:32;13.65;;;6.53;;
65753;SDS011;52488;47.502;18.940;2023-02-15T01:07:36;11.50;;;6.12;;
65753;SDS011;52488;47.502;18.940;2023-02-15T01:08:39;11.60;;;5.70;;
65753;SDS011;52488;47.502;18.940;2023-02-15T01:09:43;11.40;;;6.05;;
65753;SDS011;52488;47.502;18.940;2023-02-15T01:10:46;15.20;;;6.87;;
65753;SDS011;52488;47.502;18.940;2023-02-15T01:11:50;15.38;;;7.30;;
65753;SDS011;52488;47.502;18.940;2023-02-15T01:12:53;15.77;;;7.43;;
65753;SDS011;52488;47.502;18.940;2023-02-15T01:13:57;16.50;;;7.35;;
65753;SDS011;52488;47.502;18.940;2023-02-15T01:15:01;13.05;;;6.20;;
65753;SDS011;52488;47.502;18.940;2023-02-15T01:16:04;13.73;;;6.32;;
65753;SDS011;52488;47.502;18.940;2023-02-15T01:17:07;12.13;;;6.00;;
65753;SDS011;52488;47.502;18.940;2023-02-15T01:18:11;10.18;;;5.57;;
65753;SDS011;52488;47.502;18.940;2023-02-15T01:19:15;13.57;;;6.43;;
65753;SDS011;52488;47.502;18.940;2023-02-15T01:21:24;11.77;;;5.80;;
65753;SDS011;52488;47.502;18.940;2023-02-15T01:22:28;13.30;;;6.75;;
65753;SDS011;52488;47.502;18.940;2023-02-15T01:23:32;11.32;;;6.20;;
65753;SDS011;52488;47.502;18.940;2023-02-15T01:24:35;11.10;;;5.85;;
65753;SDS011;52488;47.502;18.940;2023-02-15T01:25:39;12.20;;;6.00;;
65753;SDS011;52488;47.502;18.940;2023-02-15T01:26:42;12.50;;;5.47;;
65753;SDS011;52488;47.502;18.940;2023-02-15T01:27:45;10.25;;;5.65;;
65753;SDS011;52488;47.502;18.940;2023-02-15T01:28:49;9.70;;;5.55;;
65753;SDS011;52488;47.502;18.940;2023-02-15T01:29:53;12.10;;;5.97;;
65753;SDS011;52488;47.502;18.940;2023-02-15T01:30:56;12.07;;;6.10;;
65753;SDS011;52488;47.502;18.940;2023-02-15T01:31:59;12.37;;;6.10;;
65753;SDS011;52488;47.502;18.940;2023-02-15T01:33:03;11.23;;;6.05;;
65753;SDS011;52488;47.502;18.940;2023-02-15T01:34:06;13.93;;;6.72;;
65753;SDS011;52488;47.502;18.940;2023-02-15T01:35:09;13.82;;;6.40;;
65753;SDS011;52488;47.502;18.940;2023-02-15T01:36:14;11.40;;;5.80;;
65753;SDS011;52488;47.502;18.940;2023-02-15T01:37:17;11.82;;;6.00;;
65753;SDS011;52488;47.502;18.940;2023-02-15T01:38:20;10.35;;;5.78;;
65753;SDS011;52488;47.502;18.940;2023-02-15T01:39:24;10.88;;;5.90;;
65753;SDS011;52488;47.502;18.940;2023-02-15T01:40:27;11.45;;;5.70;;
65753;SDS011;52488;47.502;18.940;2023-02-15T01:41:30;10.18;;;5.78;;
65753;SDS011;52488;47.502;18.940;2023-02-15T01:42:33;12.07;;;6.45;;
65753;SDS011;52488;47.502;18.940;2023-02-15T01:43:42;12.05;;;5.80;;
65753;SDS011;52488;47.502;18.940;2023-02-15T01:44:49;9.15;;;5.43;;
65753;SDS011;52488;47.502;18.940;2023-02-15T01:45:53;10.20;;;5.93;;
65753;SDS011;52488;47.502;18.940;2023-02-15T01:46:56;11.05;;;5.43;;
65753;SDS011;52488;47.502;18.940;2023-02-15T01:49:27;10.40;;;5.70;;
65753;SDS011;52488;47.502;18.940;2023-02-15T01:50:34;10.45;;;5.47;;
65753;SDS011;52488;47.502;18.940;2023-02-15T01:51:42;11.18;;;5.72;;
65753;SDS011;52488;47.502;18.940;2023-02-15T01:54:08;12.52;;;6.03;;
65753;SDS011;52488;47.502;18.940;2023-02-15T01:55:36;14.77;;;6.05;;
65753;SDS011;52488;47.502;18.940;2023-02-15T01:57:12;9.32;;;5.12;;
65753;SDS011;52488;47.502;18.940;2023-02-15T01:58:20;9.88;;;4.80;;
65753;SDS011;52488;47.502;18.940;2023-02-15T01:59:25;10.63;;;5.85;;
65753;SDS011;52488;47.502;18.940;2023-02-15T02:00:28;11.82;;;6.03;;
65753;SDS011;52488;47.502;18.940;2023-02-15T02:01:32;11.55;;;5.62;;
65753;SDS011;52488;47.502;18.940;2023-02-15T02:02:36;11.07;;;6.50;;
65753;SDS011;52488;47.502;18.940;2023-02-15T02:05:02;9.27;;;5.62;;
65753;SDS011;52488;47.502;18.940;2023-02-15T02:06:09;12.02;;;5.97;;
65753;SDS011;52488;47.502;18.940;2023-02-15T02:07:14;12.80;;;6.15;;
65753;SDS011;52488;47.502;18.940;2023-02-15T02:08:22;12.68;;;6.10;;
65753;SDS011;52488;47.502;18.940;2023-02-15T02:09:25;11.73;;;5.72;;
65753;SDS011;52488;47.502;18.940;2023-02-15T02:10:29;12.18;;;5.87;;
65753;SDS011;52488;47.502;18.940;2023-02-15T02:11:33;10.05;;;5.78;;
65753;SDS011;52488;47.502;18.940;2023-02-15T02:12:37;9.73;;;5.43;;
65753;SDS011;52488;47.502;18.940;2023-02-15T02:13:43;12.35;;;6.20;;
65753;SDS011;52488;47.502;18.940;2023-02-15T02:14:47;10.35;;;6.00;;
65753;SDS011;52488;47.502;18.940;2023-02-15T02:16:00;11.55;;;6.10;;
65753;SDS011;52488;47.502;18.940;2023-02-15T02:24:41;12.05;;;6.10;;
65753;SDS011;52488;47.502;18.940;2023-02-15T02:28:48;13.75;;;6.82;;
65753;SDS011;52488;47.502;18.940;2023-02-15T02:38:48;9.88;;;5.55;;
65753;SDS011;52488;47.502;18.940;2023-02-15T02:40:25;11.23;;;6.37;;
65753;SDS011;52488;47.502;18.940;2023-02-15T02:43:15;11.95;;;6.30;;
65753;SDS011;52488;47.502;18.940;2023-02-15T02:44:47;12.18;;;6.25;;
65753;SDS011;52488;47.502;18.940;2023-02-15T02:45:57;11.45;;;6.70;;
65753;SDS011;52488;47.502;18.940;2023-02-15T02:47:26;15.88;;;6.78;;
65753;SDS011;52488;47.502;18.940;2023-02-15T02:48:44;13.68;;;6.82;;
65753;SDS011;52488;47.502;18.940;2023-02-15T02:49:47;13.32;;;6.07;;
65753;SDS011;52488;47.502;18.940;2023-02-15T02:50:54;16.52;;;6.87;;
65753;SDS011;52488;47.502;18.940;2023-02-15T02:52:01;12.43;;;6.87;;
65753;SDS011;52488;47.502;18.940;2023-02-15T02:53:05;13.55;;;6.93;;
65753;SDS011;52488;47.502;18.940;2023-02-15T02:54:09;13.48;;;7.20;;
65753;SDS011;52488;47.502;18.940;2023-02-15T02:57:45;11.75;;;6.32;;
65753;SDS011;52488;47.502;18.940;2023-02-15T02:59:01;17.20;;;7.12;;
65753;SDS011;52488;47.502;18.940;2023-02-15T03:00:10;11.40;;;6.12;;
65753;SDS011;52488;47.502;18.940;2023-02-15T03:02:21;13.48;;;7.05;;
65753;SDS011;52488;47.502;18.940;2023-02-15T03:03:34;14.32;;;7.00;;
65753;SDS011;52488;47.502;18.940;2023-02-15T03:04:41;11.98;;;6.65;;
65753;SDS011;52488;47.502;18.940;2023-02-15T03:05:50;13.00;;;6.45;;
65753;SDS011;52488;47.502;18.940;2023-02-15T03:07:00;17.40;;;7.62;;
65753;SDS011;52488;47.502;18.940;2023-02-15T03:08:07;12.15;;;6.53;;
65753;SDS011;52488;47.502;18.940;2023-02-15T03:09:14;12.32;;;7.05;;
65753;SDS011;52488;47.502;18.940;2023-02-15T03:10:23;13.95;;;6.72;;
65753;SDS011;52488;47.502;18.940;2023-02-15T03:11:27;14.32;;;7.43;;
65753;SDS011;52488;47.502;18.940;2023-02-15T03:12:32;13.07;;;7.20;;
65753;SDS011;52488;47.502;18.940;2023-02-15T03:13:39;16.08;;;7.53;;
65753;SDS011;52488;47.502;18.940;2023-02-15T03:14:44;15.50;;;7.62;;
65753;SDS011;52488;47.502;18.940;2023-02-15T03:15:51;16.05;;;8.02;;
65753;SDS011;52488;47.502;18.940;2023-02-15T03:17:15;15.55;;;7.35;;
65753;SDS011;52488;47.502;18.940;2023-02-15T03:18:22;15.50;;;8.10;;
65753;SDS011;52488;47.502;18.940;2023-02-15T03:19:33;14.43;;;7.82;;
65753;SDS011;52488;47.502;18.940;2023-02-15T03:20:40;14.43;;;7.72;;
65753;SDS011;52488;47.502;18.940;2023-02-15T03:21:44;16.60;;;7.45;;
65753;SDS011;52488;47.502;18.940;2023-02-15T03:23:06;14.68;;;8.10;;
65753;SDS011;52488;47.502;18.940;2023-02-15T03:24:18;15.90;;;7.80;;
65753;SDS011;52488;47.502;18.940;2023-02-15T03:25:30;16.92;;;7.82;;
65753;SDS011;52488;47.502;18.940;2023-02-15T03:26:36;14.90;;;7.45;;
65753;SDS011;52488;47.502;18.940;2023-02-15T03:27:45;14.50;;;7.47;;
65753;SDS011;52488;47.502;18.940;2023-02-15T03:28:55;14.13;;;7.97;;
65753;SDS011;52488;47.502;18.940;2023-02-15T03:30:01;14.45;;;7.50;;
65753;SDS011;52488;47.502;18.940;2023-02-15T03:31:06;14.40;;;7.60;;
65753;SDS011;52488;47.502;18.940;2023-02-15T03:32:13;14.98;;;6.97;;
65753;SDS011;52488;47.502;18.940;2023-02-15T03:33:18;16.52;;;7.28;;
65753;SDS011;52488;47.502;18.940;2023-02-15T03:34:23;13.75;;;7.12;;
65753;SDS011;52488;47.502;18.940;2023-02-15T03:35:30;15.43;;;7.37;;
65753;SDS011;52488;47.502;18.940;2023-02-15T03:36:44;16.95;;;7.82;;
65753;SDS011;52488;47.502;18.940;2023-02-15T03:38:09;12.88;;;7.00;;
65753;SDS011;52488;47.502;18.940;2023-02-15T03:40:34;14.05;;;7.28;;
65753;SDS011;52488;47.502;18.940;2023-02-15T03:43:55;13.48;;;6.97;;
65753;SDS011;52488;47.502;18.940;2023-02-15T03:45:04;14.57;;;7.07;;
65753;SDS011;52488;47.502;18.940;2023-02-15T03:46:23;13.62;;;7.37;;
65753;SDS011;52488;47.502;18.940;2023-02-15T03:47:46;14.73;;;7.03;;
65753;SDS011;52488;47.502;18.940;2023-02-15T03:48:57;14.32;;;7.78;;
65753;SDS011;52488;47.502;18.940;2023-02-15T03:50:16;15.85;;;7.35;;
65753;SDS011;52488;47.502;18.940;2023-02-15T03:51:48;12.68;;;7.15;;
65753;SDS011;52488;47.502;18.940;2023-02-15T03:52:54;12.88;;;6.97;;
65753;SDS011;52488;47.502;18.940;2023-02-15T03:54:01;15.48;;;7.43;;
65753;SDS011;52488;47.502;18.940;2023-02-15T03:55:13;15.48;;;7.80;;
65753;SDS011;52488;47.502;18.940;2023-02-15T03:56:16;13.68;;;6.75;;
65753;SDS011;52488;47.502;18.940;2023-02-15T03:57:21;13.60;;;7.10;;
65753;SDS011;52488;47.502;18.940;2023-02-15T03:58:44;15.73;;;7.45;;
65753;SDS011;52488;47.502;18.940;2023-02-15T04:01:52;14.15;;;7.12;;
65753;SDS011;52488;47.502;18.940;2023-02-15T04:04:19;14.90;;;6.90;;
65753;SDS011;52488;47.502;18.940;2023-02-15T04:05:26;14.82;;;7.03;;
65753;SDS011;52488;47.502;18.940;2023-02-15T04:06:30;12.80;;;7.37;;
65753;SDS011;52488;47.502;18.940;2023-02-15T04:07:33;16.08;;;7.30;;
65753;SDS011;52488;47.502;18.940;2023-02-15T04:08:36;15.35;;;7.65;;
65753;SDS011;52488;47.502;18.940;2023-02-15T04:09:58;12.98;;;7.37;;
65753;SDS011;52488;47.502;18.940;2023-02-15T04:11:19;14.23;;;6.62;;
65753;SDS011;52488;47.502;18.940;2023-02-15T04:12:23;13.73;;;7.50;;
65753;SDS011;52488;47.502;18.940;2023-02-15T04:13:31;13.62;;;6.80;;
65753;SDS011;52488;47.502;18.940;2023-02-15T04:14:35;14.07;;;6.95;;
65753;SDS011;52488;47.502;18.940;2023-02-15T04:16:01;15.80;;;7.30;;
65753;SDS011;52488;47.502;18.940;2023-02-15T04:17:09;12.57;;;6.32;;
65753;SDS011;52488;47.502;18.940;2023-02-15T04:18:13;14.87;;;6.62;;
65753;SDS011;52488;47.502;18.940;2023-02-15T04:19:17;13.18;;;6.82;;
65753;SDS011;52488;47.502;18.940;2023-02-15T04:22:00;12.32;;;6.03;;
65753;SDS011;52488;47.502;18.940;2023-02-15T04:24:44;12.95;;;7.15;;
65753;SDS011;52488;47.502;18.940;2023-02-15T04:26:06;12.68;;;6.25;;
65753;SDS011;52488;47.502;18.940;2023-02-15T04:27:09;14.20;;;6.85;;
65753;SDS011;52488;47.502;18.940;2023-02-15T04:28:12;14.13;;;7.05;;
65753;SDS011;52488;47.502;18.940;2023-02-15T04:29:15;15.45;;;7.10;;
65753;SDS011;52488;47.502;18.940;2023-02-15T04:30:20;15.32;;;6.90;;
65753;SDS011;52488;47.502;18.940;2023-02-15T04:31:25;13.65;;;6.68;;
65753;SDS011;52488;47.502;18.940;2023-02-15T04:32:29;14.48;;;6.95;;
65753;SDS011;52488;47.502;18.940;2023-02-15T04:33:32;12.10;;;7.03;;
65753;SDS011;52488;47.502;18.940;2023-02-15T04:34:35;12.82;;;6.50;;
65753;SDS011;52488;47.502;18.940;2023-02-15T04:35:38;13.82;;;6.75;;
65753;SDS011;52488;47.502;18.940;2023-02-15T04:36:41;15.45;;;7.78;;
65753;SDS011;52488;47.502;18.940;2023-02-15T04:37:45;14.52;;;7.00;;
65753;SDS011;52488;47.502;18.940;2023-02-15T04:38:48;14.80;;;7.40;;
65753;SDS011;52488;47.502;18.940;2023-02-15T04:39:52;13.80;;;6.80;;
65753;SDS011;52488;47.502;18.940;2023-02-15T04:40:56;14.45;;;6.97;;
65753;SDS011;52488;47.502;18.940;2023-02-15T04:41:59;15.20;;;7.45;;
65753;SDS011;52488;47.502;18.940;2023-02-15T04:43:02;13.52;;;6.80;;
65753;SDS011;52488;47.502;18.940;2023-02-15T04:44:05;17.55;;;7.97;;
65753;SDS011;52488;47.502;18.940;2023-02-15T04:45:09;14.98;;;7.40;;
65753;SDS011;52488;47.502;18.940;2023-02-15T04:46:12;14.32;;;7.87;;
65753;SDS011;52488;47.502;18.940;2023-02-15T04:47:16;16.62;;;7.62;;
65753;SDS011;52488;47.502;18.940;2023-02-15T04:48:19;13.48;;;7.12;;
65753;SDS011;52488;47.502;18.940;2023-02-15T04:49:22;13.80;;;7.18;;
65753;SDS011;52488;47.502;18.940;2023-02-15T04:50:25;13.73;;;6.80;;
65753;SDS011;52488;47.502;18.940;2023-02-15T04:51:29;13.62;;;7.10;;
65753;SDS011;52488;47.502;18.940;2023-02-15T04:52:32;13.73;;;7.15;;
65753;SDS011;52488;47.502;18.940;2023-02-15T04:53:35;13.13;;;6.60;;
65753;SDS011;52488;47.502;18.940;2023-02-15T04:54:38;18.92;;;7.53;;
65753;SDS011;52488;47.502;18.940;2023-02-15T04:55:41;13.27;;;6.82;;
65753;SDS011;52488;47.502;18.940;2023-02-15T04:56:45;14.85;;;7.50;;
65753;SDS011;52488;47.502;18.940;2023-02-15T04:57:48;13.32;;;7.15;;
65753;SDS011;52488;47.502;18.940;2023-02-15T04:58:51;12.37;;;6.60;;
65753;SDS011;52488;47.502;18.940;2023-02-15T04:59:55;16.85;;;7.75;;
65753;SDS011;52488;47.502;18.940;2023-02-15T05:00:59;18.48;;;7.50;;
65753;SDS011;52488;47.502;18.940;2023-02-15T05:02:03;16.25;;;7.53;;
65753;SDS011;52488;47.502;18.940;2023-02-15T05:03:06;16.90;;;7.45;;
65753;SDS011;52488;47.502;18.940;2023-02-15T05:04:09;15.00;;;7.80;;
65753;SDS011;52488;47.502;18.940;2023-02-15T05:05:12;16.52;;;7.72;;
65753;SDS011;52488;47.502;18.940;2023-02-15T05:06:17;14.75;;;7.60;;
65753;SDS011;52488;47.502;18.940;2023-02-15T05:07:20;12.50;;;7.05;;
65753;SDS011;52488;47.502;18.940;2023-02-15T05:08:23;14.60;;;7.60;;
65753;SDS011;52488;47.502;18.940;2023-02-15T05:09:27;15.18;;;7.22;;
65753;SDS011;52488;47.502;18.940;2023-02-15T05:10:30;14.77;;;7.70;;
65753;SDS011;52488;47.502;18.940;2023-02-15T05:11:33;16.30;;;8.13;;
65753;SDS011;52488;47.502;18.940;2023-02-15T05:12:36;15.00;;;7.93;;
65753;SDS011;52488;47.502;18.940;2023-02-15T05:13:39;18.52;;;8.25;;
65753;SDS011;52488;47.502;18.940;2023-02-15T05:14:42;14.40;;;7.78;;
65753;SDS011;52488;47.502;18.940;2023-02-15T05:15:46;16.37;;;7.78;;
65753;SDS011;52488;47.502;18.940;2023-02-15T05:16:59;16.75;;;7.87;;
65753;SDS011;52488;47.502;18.940;2023-02-15T05:18:04;13.82;;;7.10;;
65753;SDS011;52488;47.502;18.940;2023-02-15T05:19:09;14.18;;;7.28;;
65753;SDS011;52488;47.502;18.940;2023-02-15T05:20:12;12.65;;;7.12;;
65753;SDS011;52488;47.502;18.940;2023-02-15T05:21:16;14.18;;;7.47;;
65753;SDS011;52488;47.502;18.940;2023-02-15T05:22:19;16.00;;;7.60;;
65753;SDS011;52488;47.502;18.940;2023-02-15T05:23:22;17.90;;;7.60;;
65753;SDS011;52488;47.502;18.940;2023-02-15T05:24:25;15.35;;;7.93;;
65753;SDS011;52488;47.502;18.940;2023-02-15T05:25:51;14.50;;;7.70;;
65753;SDS011;52488;47.502;18.940;2023-02-15T05:28:35;15.07;;;7.30;;
65753;SDS011;52488;47.502;18.940;2023-02-15T05:29:40;16.48;;;7.93;;
65753;SDS011;52488;47.502;18.940;2023-02-15T05:30:43;18.65;;;8.02;;
65753;SDS011;52488;47.502;18.940;2023-02-15T05:31:46;14.75;;;7.57;;
65753;SDS011;52488;47.502;18.940;2023-02-15T05:32:51;18.25;;;8.40;;
65753;SDS011;52488;47.502;18.940;2023-02-15T05:33:54;16.25;;;7.97;;
65753;SDS011;52488;47.502;18.940;2023-02-15T05:34:57;15.75;;;7.60;;
65753;SDS011;52488;47.502;18.940;2023-02-15T05:36:00;15.25;;;8.05;;
65753;SDS011;52488;47.502;18.940;2023-02-15T05:37:05;20.30;;;8.27;;
65753;SDS011;52488;47.502;18.940;2023-02-15T05:38:10;16.20;;;8.02;;
65753;SDS011;52488;47.502;18.940;2023-02-15T05:39:13;15.93;;;7.68;;
65753;SDS011;52488;47.502;18.940;2023-02-15T05:40:16;15.07;;;7.87;;
65753;SDS011;52488;47.502;18.940;2023-02-15T05:41:20;13.98;;;7.78;;
65753;SDS011;52488;47.502;18.940;2023-02-15T05:42:23;14.87;;;7.78;;
65753;SDS011;52488;47.502;18.940;2023-02-15T05:43:26;17.55;;;8.25;;
65753;SDS011;52488;47.502;18.940;2023-02-15T05:44:30;17.40;;;8.43;;
65753;SDS011;52488;47.502;18.940;2023-02-15T05:45:33;16.73;;;7.95;;
65753;SDS011;52488;47.502;18.940;2023-02-15T05:46:37;14.98;;;7.97;;
65753;SDS011;52488;47.502;18.940;2023-02-15T05:47:40;14.87;;;7.78;;
65753;SDS011;52488;47.502;18.940;2023-02-15T05:48:43;17.25;;;8.50;;
65753;SDS011;52488;47.502;18.940;2023-02-15T05:49:46;14.80;;;7.80;;
65753;SDS011;52488;47.502;18.940;2023-02-15T05:51:00;16.80;;;7.78;;
65753;SDS011;52488;47.502;18.940;2023-02-15T05:52:06;17.30;;;8.73;;
65753;SDS011;52488;47.502;18.940;2023-02-15T05:53:09;16.25;;;7.72;;
65753;SDS011;52488;47.502;18.940;2023-02-15T05:54:12;18.70;;;8.68;;
65753;SDS011;52488;47.502;18.940;2023-02-15T05:55:16;17.02;;;7.82;;
65753;SDS011;52488;47.502;18.940;2023-02-15T05:56:19;16.27;;;8.00;;
65753;SDS011;52488;47.502;18.940;2023-02-15T05:57:23;19.10;;;8.57;;
65753;SDS011;52488;47.502;18.940;2023-02-15T05:58:26;15.50;;;7.60;;
65753;SDS011;52488;47.502;18.940;2023-02-15T05:59:30;14.77;;;7.57;;
65753;SDS011;52488;47.502;18.940;2023-02-15T06:00:34;18.05;;;7.95;;
65753;SDS011;52488;47.502;18.940;2023-02-15T06:01:39;18.55;;;9.35;;
65753;SDS011;52488;47.502;18.940;2023-02-15T06:02:45;15.98;;;7.93;;
65753;SDS011;52488;47.502;18.940;2023-02-15T06:03:48;19.52;;;8.05;;
65753;SDS011;52488;47.502;18.940;2023-02-15T06:04:52;20.45;;;9.18;;
65753;SDS011;52488;47.502;18.940;2023-02-15T06:05:55;16.17;;;8.65;;
65753;SDS011;52488;47.502;18.940;2023-02-15T06:06:58;20.83;;;8.45;;
65753;SDS011;52488;47.502;18.940;2023-02-15T06:08:01;17.08;;;8.80;;
65753;SDS011;52488;47.502;18.940;2023-02-15T06:09:07;19.08;;;9.15;;
65753;SDS011;52488;47.502;18.940;2023-02-15T06:10:11;16.10;;;8.35;;
65753;SDS011;52488;47.502;18.940;2023-02-15T06:11:14;15.60;;;8.43;;
65753;SDS011;52488;47.502;18.940;2023-02-15T06:12:18;16.23;;;8.45;;
65753;SDS011;52488;47.502;18.940;2023-02-15T06:13:21;18.33;;;9.05;;
65753;SDS011;52488;47.502;18.940;2023-02-15T06:14:24;18.12;;;8.18;;
65753;SDS011;52488;47.502;18.940;2023-02-15T06:15:28;17.65;;;8.95;;
65753;SDS011;52488;47.502;18.940;2023-02-15T06:16:31;18.30;;;9.00;;
65753;SDS011;52488;47.502;18.940;2023-02-15T06:17:34;17.05;;;9.00;;
65753;SDS011;52488;47.502;18.940;2023-02-15T06:18:38;19.02;;;9.40;;
65753;SDS011;52488;47.502;18.940;2023-02-15T06:19:41;17.33;;;8.57;;
65753;SDS011;52488;47.502;18.940;2023-02-15T06:20:45;20.33;;;9.32;;
65753;SDS011;52488;47.502;18.940;2023-02-15T06:21:49;19.17;;;8.77;;
65753;SDS011;52488;47.502;18.940;2023-02-15T06:22:55;17.42;;;8.55;;
65753;SDS011;52488;47.502;18.940;2023-02-15T06:23:58;16.92;;;8.05;;
65753;SDS011;52488;47.502;18.940;2023-02-15T06:25:01;18.37;;;8.77;;
65753;SDS011;52488;47.502;18.940;2023-02-15T06:26:05;25.00;;;10.25;;
65753;SDS011;52488;47.502;18.940;2023-02-15T06:27:08;19.37;;;8.85;;
65753;SDS011;52488;47.502;18.940;2023-02-15T06:28:13;19.60;;;9.27;;
65753;SDS011;52488;47.502;18.940;2023-02-15T06:29:16;23.92;;;9.23;;
65753;SDS011;52488;47.502;18.940;2023-02-15T06:30:20;21.23;;;9.25;;
65753;SDS011;52488;47.502;18.940;2023-02-15T06:31:23;17.65;;;9.30;;
65753;SDS011;52488;47.502;18.940;2023-02-15T06:32:27;18.85;;;9.15;;
65753;SDS011;52488;47.502;18.940;2023-02-15T06:33:30;20.52;;;9.43;;
65753;SDS011;52488;47.502;18.940;2023-02-15T06:34:35;16.12;;;8.70;;
65753;SDS011;52488;47.502;18.940;2023-02-15T06:35:38;23.23;;;9.27;;
65753;SDS011;52488;47.502;18.940;2023-02-15T06:36:41;17.80;;;8.25;;
65753;SDS011;52488;47.502;18.940;2023-02-15T06:37:45;16.62;;;8.68;;
65753;SDS011;52488;47.502;18.940;2023-02-15T06:38:49;20.83;;;9.63;;
65753;SDS011;52488;47.502;18.940;2023-02-15T06:39:52;20.27;;;9.57;;
65753;SDS011;52488;47.502;18.940;2023-02-15T06:40:55;21.70;;;9.82;;
65753;SDS011;52488;47.502;18.940;2023-02-15T06:41:59;20.80;;;9.48;;
65753;SDS011;52488;47.502;18.940;2023-02-15T06:43:03;18.92;;;9.13;;
65753;SDS011;52488;47.502;18.940;2023-02-15T06:44:07;19.92;;;9.32;;
65753;SDS011;52488;47.502;18.940;2023-02-15T06:45:10;19.48;;;10.07;;
65753;SDS011;52488;47.502;18.940;2023-02-15T06:46:14;18.30;;;8.60;;
65753;SDS011;52488;47.502;18.940;2023-02-15T06:47:17;24.60;;;10.10;;
65753;SDS011;52488;47.502;18.940;2023-02-15T06:48:20;22.40;;;9.77;;
65753;SDS011;52488;47.502;18.940;2023-02-15T06:49:24;21.23;;;9.55;;
65753;SDS011;52488;47.502;18.940;2023-02-15T06:50:27;20.85;;;9.77;;
65753;SDS011;52488;47.502;18.940;2023-02-15T06:51:30;19.90;;;10.43;;
65753;SDS011;52488;47.502;18.940;2023-02-15T06:52:36;20.12;;;9.57;;
65753;SDS011;52488;47.502;18.940;2023-02-15T06:53:39;22.13;;;9.80;;
65753;SDS011;52488;47.502;18.940;2023-02-15T06:54:46;21.98;;;10.23;;
65753;SDS011;52488;47.502;18.940;2023-02-15T06:55:49;23.27;;;10.52;;
65753;SDS011;52488;47.502;18.940;2023-02-15T06:56:52;21.52;;;10.05;;
65753;SDS011;52488;47.502;18.940;2023-02-15T06:57:55;23.33;;;11.23;;
65753;SDS011;52488;47.502;18.940;2023-02-15T06:58:59;21.77;;;9.85;;
65753;SDS011;52488;47.502;18.940;2023-02-15T07:00:02;21.52;;;10.52;;
65753;SDS011;52488;47.502;18.940;2023-02-15T07:01:08;18.65;;;9.38;;
65753;SDS011;52488;47.502;18.940;2023-02-15T07:02:12;20.27;;;9.88;;
65753;SDS011;52488;47.502;18.940;2023-02-15T07:03:16;23.23;;;10.40;;
65753;SDS011;52488;47.502;18.940;2023-02-15T07:04:20;21.30;;;9.70;;
65753;SDS011;52488;47.502;18.940;2023-02-15T07:05:26;19.17;;;9.73;;
65753;SDS011;52488;47.502;18.940;2023-02-15T07:06:34;20.92;;;9.45;;